createdAt,value
2019-04-07T00:01:26.439Z,17.07
2019-04-07T00:03:56.613Z,15.73
2019-04-07T00:06:26.961Z,17.20
2019-04-07T00:08:55.709Z,15.23
2019-04-07T00:11:24.466Z,16.60
2019-04-07T00:13:55.272Z,17.07
2019-04-07T00:16:24.214Z,16.10
2019-04-07T00:18:53.474Z,15.70
2019-04-07T00:21:22.318Z,15.37
2019-04-07T00:23:51.581Z,16.37
2019-04-07T00:26:20.372Z,16.00
2019-04-07T00:28:49.059Z,16.93
2019-04-07T00:31:19.365Z,16.33
2019-04-07T00:33:48.590Z,16.73
2019-04-07T00:36:17.792Z,17.00
2019-04-07T00:38:47.065Z,17.03
2019-04-07T00:41:15.821Z,18.63
2019-04-07T00:43:44.584Z,19.03
2019-04-07T00:46:13.668Z,18.17
2019-04-07T00:48:44.265Z,17.90
2019-04-07T00:51:13.197Z,17.63
2019-04-07T00:53:41.925Z,17.47
2019-04-07T00:56:16.603Z,17.67
2019-04-07T00:58:45.672Z,18.70
2019-04-07T01:01:18.112Z,16.87
2019-04-07T01:03:46.803Z,17.73
2019-04-07T01:06:21.889Z,18.23
2019-04-07T01:08:52.451Z,18.60
2019-04-07T01:11:23.122Z,18.53
2019-04-07T01:13:51.940Z,17.13
2019-04-07T01:16:20.789Z,17.43
2019-04-07T01:18:50.219Z,18.13
2019-04-07T01:21:21.773Z,17.77
2019-04-07T01:23:50.439Z,18.83
2019-04-07T01:26:19.074Z,18.50
2019-04-07T01:28:48.217Z,17.37
2019-04-07T01:31:17.632Z,18.23
2019-04-07T01:33:46.859Z,19.00
2019-04-07T01:36:16.083Z,18.67
2019-04-07T01:38:45.427Z,17.53
2019-04-07T01:41:19.513Z,19.27
2019-04-07T01:44:00.136Z,19.07
2019-04-07T01:46:30.673Z,19.30
2019-04-07T01:49:10.962Z,19.03
2019-04-07T01:51:44.582Z,18.77
2019-04-07T01:54:17.983Z,19.53
2019-04-07T01:56:58.039Z,19.90
2019-04-07T01:59:37.875Z,17.77
2019-04-07T02:02:14.745Z,18.47
2019-04-07T02:05:03.429Z,18.13
2019-04-07T02:07:40.095Z,17.97
2019-04-07T02:10:13.788Z,18.77
2019-04-07T02:12:50.683Z,19.50
2019-04-07T02:15:40.743Z,19.23
2019-04-07T02:18:13.533Z,19.07
2019-04-07T02:21:04.351Z,18.87
2019-04-07T02:23:51.384Z,18.60
2019-04-07T02:29:09.220Z,19.47
2019-04-07T02:31:40.126Z,19.30
2019-04-07T02:34:13.677Z,18.90
2019-04-07T02:36:49.990Z,18.67
2019-04-07T02:39:36.828Z,19.57
2019-04-07T02:42:07.447Z,19.20
2019-04-07T02:44:40.964Z,19.90
2019-04-07T02:47:11.493Z,18.73
2019-04-07T02:49:48.608Z,20.03
2019-04-07T02:52:35.725Z,17.80
2019-04-07T02:55:13.073Z,18.90
2019-04-07T02:57:47.579Z,19.63
2019-04-07T03:00:24.645Z,19.23
2019-04-07T03:03:04.788Z,18.33
2019-04-07T03:05:38.425Z,18.63
2019-04-07T03:08:21.342Z,19.30
2019-04-07T03:10:55.371Z,18.77
2019-04-07T03:13:26.219Z,18.37
2019-04-07T03:16:02.110Z,18.53
2019-04-07T03:18:48.871Z,19.33
2019-04-07T03:21:19.630Z,18.63
2019-04-07T03:23:51.198Z,18.87
2019-04-07T03:26:40.712Z,19.57
2019-04-07T03:29:14.102Z,19.60
2019-04-07T03:31:54.299Z,19.57
2019-04-07T03:34:30.628Z,18.27
2019-04-07T03:37:18.302Z,19.10
2019-04-07T03:39:49.188Z,18.17
2019-04-07T03:42:37.017Z,17.80
2019-04-07T03:48:08.564Z,20.23
2019-04-07T03:50:41.737Z,18.57
2019-04-07T03:53:15.889Z,19.63
2019-04-07T03:55:51.657Z,20.03
2019-04-07T03:58:38.454Z,20.23
2019-04-07T04:01:25.941Z,19.43
2019-04-07T04:04:15.608Z,19.90
2019-04-07T04:07:17.708Z,19.60
2019-04-07T04:09:42.833Z,18.23
2019-04-07T04:12:30.097Z,19.20
2019-04-07T04:15:01.683Z,20.80
2019-04-07T04:17:30.726Z,21.57
2019-04-07T04:20:04.176Z,22.60
2019-04-07T04:22:33.002Z,21.23
2019-04-07T04:25:02.808Z,20.80
2019-04-07T04:27:31.606Z,22.53
2019-04-07T04:30:00.933Z,20.07
2019-04-07T04:32:30.794Z,19.07
2019-04-07T04:35:00.971Z,18.97
2019-04-07T04:37:40.323Z,20.00
2019-04-07T04:40:00.371Z,21.00
2019-04-07T04:42:29.085Z,20.87
2019-04-07T04:44:58.870Z,20.33
2019-04-07T04:47:27.791Z,20.53
2019-04-07T04:49:56.428Z,19.60
2019-04-07T04:52:26.412Z,20.57
2019-04-07T04:54:56.892Z,20.27
2019-04-07T04:57:25.817Z,20.07
2019-04-07T04:59:54.469Z,20.30
2019-04-07T05:02:23.555Z,20.80
2019-04-07T05:04:52.781Z,20.40
2019-04-07T05:07:22.832Z,20.77
2019-04-07T05:09:55.099Z,20.17
2019-04-07T05:12:23.158Z,20.87
2019-04-07T05:14:51.902Z,20.27
2019-04-07T05:17:24.270Z,21.93
2019-04-07T05:19:53.403Z,21.47
2019-04-07T05:22:22.550Z,20.57
2019-04-07T05:24:52.092Z,20.73
2019-04-07T05:27:20.740Z,20.40
2019-04-07T05:29:52.180Z,20.07
2019-04-07T05:32:21.221Z,22.03
2019-04-07T05:34:50.462Z,20.90
2019-04-07T05:37:19.255Z,20.90
2019-04-07T05:39:48.393Z,19.33
2019-04-07T05:42:17.512Z,18.70
2019-04-07T05:44:46.631Z,19.70
2019-04-07T05:47:15.538Z,18.93
2019-04-07T05:49:44.590Z,19.23
2019-04-07T05:52:13.961Z,18.93
2019-04-07T05:54:42.900Z,19.20
2019-04-07T05:57:11.880Z,17.90
2019-04-07T05:59:42.256Z,17.23
2019-04-07T06:02:11.110Z,18.03
2019-04-07T06:04:40.382Z,16.73
2019-04-07T06:07:09.195Z,17.83
2019-04-07T06:09:37.755Z,16.77
2019-04-07T06:12:09.822Z,16.50
2019-04-07T06:14:38.936Z,20.27
2019-04-07T06:17:07.645Z,22.20
2019-04-07T06:19:41.127Z,23.10
2019-04-07T06:22:08.656Z,22.47
2019-04-07T06:24:37.350Z,20.23
2019-04-07T06:27:06.210Z,21.53
2019-04-07T06:29:35.530Z,20.12
2019-04-07T06:32:09.257Z,19.47
2019-04-07T06:34:39.856Z,18.92
2019-04-07T06:37:07.721Z,19.83
2019-04-07T06:39:38.992Z,18.75
2019-04-07T06:42:08.491Z,16.93
2019-04-07T06:44:38.503Z,17.10
2019-04-07T06:47:15.945Z,16.45
2019-04-07T06:49:53.121Z,15.43
2019-04-07T06:52:38.697Z,15.50
2019-04-07T06:55:22.645Z,16.00
2019-04-07T06:58:07.544Z,17.07
2019-04-07T07:00:43.337Z,15.47
2019-04-07T07:03:19.886Z,16.20
2019-04-07T07:05:56.162Z,15.17
2019-04-07T07:08:43.773Z,14.90
2019-04-07T07:11:28.895Z,16.03
2019-04-07T07:13:59.986Z,16.40
2019-04-07T07:16:46.881Z,14.17
2019-04-07T07:19:33.127Z,14.83
2019-04-07T07:22:16.589Z,14.43
2019-04-07T07:24:50.245Z,14.07
2019-04-07T07:27:18.992Z,14.53
2019-04-07T07:29:48.938Z,14.43
2019-04-07T07:32:18.055Z,13.38
2019-04-07T07:34:46.800Z,14.18
2019-04-07T07:37:15.838Z,15.07
2019-04-07T07:39:45.094Z,14.13
2019-04-07T07:42:15.027Z,13.88
2019-04-07T07:44:43.905Z,14.70
2019-04-07T07:47:13.383Z,14.35
2019-04-07T07:49:42.489Z,14.68
2019-04-07T07:52:11.649Z,13.75
2019-04-07T07:54:41.027Z,14.07
2019-04-07T07:57:13.228Z,13.38
2019-04-07T07:59:43.280Z,13.43
2019-04-07T08:02:14.624Z,13.20
2019-04-07T08:04:42.452Z,14.00
2019-04-07T08:07:13.532Z,13.68
2019-04-07T08:09:42.163Z,12.25
2019-04-07T08:12:11.581Z,12.88
2019-04-07T08:14:42.661Z,13.43
2019-04-07T08:17:12.197Z,12.55
2019-04-07T08:19:42.634Z,13.00
2019-04-07T08:22:11.642Z,11.63
2019-04-07T08:24:40.579Z,11.45
2019-04-07T08:27:09.271Z,11.30
2019-04-07T08:29:39.569Z,11.33
2019-04-07T08:32:08.617Z,10.93
2019-04-07T08:34:37.275Z,11.20
2019-04-07T08:37:08.367Z,10.82
2019-04-07T08:39:37.491Z,9.75
2019-04-07T08:42:09.739Z,10.53
2019-04-07T08:44:36.787Z,12.00
2019-04-07T08:47:05.587Z,10.03
2019-04-07T08:49:35.367Z,10.88
2019-04-07T08:52:09.965Z,10.28
2019-04-07T08:54:37.173Z,9.48
2019-04-07T08:57:05.985Z,9.85
2019-04-07T08:59:35.389Z,10.15
2019-04-07T09:02:08.537Z,10.00
2019-04-07T09:04:44.238Z,9.60
2019-04-07T09:07:12.213Z,9.78
2019-04-07T09:09:46.628Z,9.78
2019-04-07T09:12:11.483Z,9.85
2019-04-07T09:14:43.978Z,10.55
2019-04-07T09:17:38.465Z,10.82
2019-04-07T09:20:06.143Z,10.93
2019-04-07T09:22:40.721Z,12.63
2019-04-07T09:25:14.710Z,12.05
2019-04-07T09:27:52.325Z,12.05
2019-04-07T09:30:34.590Z,11.33
2019-04-07T09:33:08.189Z,12.30
2019-04-07T09:35:58.894Z,13.13
2019-04-07T09:38:29.962Z,12.23
2019-04-07T09:41:00.553Z,13.72
2019-04-07T09:43:40.349Z,14.15
2019-04-07T09:46:14.664Z,13.72
2019-04-07T09:48:59.914Z,13.88
2019-04-07T09:51:30.977Z,14.55
2019-04-07T09:54:05.208Z,17.12
2019-04-07T09:56:52.987Z,15.32
2019-04-07T09:59:42.919Z,16.50
2019-04-07T10:02:34.133Z,15.60
2019-04-07T10:05:06.770Z,15.75
2019-04-07T10:07:40.313Z,16.67
2019-04-07T10:10:16.086Z,15.48
2019-04-07T10:13:01.956Z,15.72
2019-04-07T10:15:36.169Z,15.75
2019-04-07T10:18:08.681Z,16.55
2019-04-07T10:20:47.978Z,16.20
2019-04-07T10:23:27.622Z,16.00
2019-04-07T10:25:58.730Z,16.73
2019-04-07T10:28:32.339Z,17.15
2019-04-07T10:31:05.461Z,15.38
2019-04-07T10:33:44.965Z,15.78
2019-04-07T10:36:21.630Z,15.35
2019-04-07T10:38:54.130Z,15.95
2019-04-07T10:41:26.271Z,16.73
2019-04-07T10:44:12.978Z,17.90
2019-04-07T10:47:00.390Z,16.37
2019-04-07T10:49:57.981Z,16.37
2019-04-07T10:52:41.335Z,18.45
2019-04-07T10:55:17.422Z,17.77
2019-04-07T10:57:48.140Z,18.67
2019-04-07T11:00:35.188Z,19.80
2019-04-07T11:03:11.003Z,19.12
2019-04-07T11:05:42.741Z,20.50
2019-04-07T11:08:16.551Z,21.05
2019-04-07T11:11:06.267Z,21.87
2019-04-07T11:13:53.423Z,22.95
2019-04-07T11:16:39.989Z,22.52
2019-04-07T11:19:19.272Z,23.05
2019-04-07T11:21:53.902Z,22.67
2019-04-07T11:24:39.138Z,24.10
2019-04-07T11:27:23.433Z,23.50
2019-04-07T11:29:53.929Z,23.47
2019-04-07T11:32:28.244Z,22.75
2019-04-07T11:35:17.869Z,21.77
2019-04-07T11:37:54.303Z,22.15
2019-04-07T11:40:41.979Z,21.80
2019-04-07T11:43:03.361Z,21.77
2019-04-07T11:45:57.455Z,22.45
2019-04-07T11:48:21.005Z,21.25
2019-04-07T11:50:52.150Z,21.68
2019-04-07T11:53:23.201Z,23.47
2019-04-07T11:56:06.929Z,24.37
2019-04-07T11:58:36.571Z,22.98
2019-04-07T12:01:12.790Z,19.30
2019-04-07T12:03:53.454Z,21.50
2019-04-07T12:06:28.193Z,22.58
2019-04-07T12:09:04.871Z,21.82
2019-04-07T12:11:52.556Z,23.12
2019-04-07T12:14:25.688Z,21.73
2019-04-07T12:17:13.483Z,22.73
2019-04-07T12:19:47.334Z,22.60
2019-04-07T12:22:20.277Z,21.30
2019-04-07T12:24:57.477Z,20.50
2019-04-07T12:27:25.952Z,20.30
2019-04-07T12:29:56.895Z,20.25
2019-04-07T12:32:34.219Z,20.15
2019-04-07T12:35:10.808Z,19.62
2019-04-07T12:37:50.707Z,19.95
2019-04-07T12:40:36.590Z,21.12
2019-04-07T12:43:07.470Z,21.23
2019-04-07T12:45:40.556Z,19.12
2019-04-07T12:48:15.629Z,18.92
2019-04-07T12:50:48.987Z,18.07
2019-04-07T12:53:32.100Z,17.50
2019-04-07T12:56:13.414Z,18.10
2019-04-07T12:58:51.654Z,19.12
2019-04-07T13:01:25.001Z,18.70
2019-04-07T13:03:58.975Z,17.90
2019-04-07T13:06:50.742Z,18.10
2019-04-07T13:09:36.595Z,17.02
2019-04-07T13:12:20.325Z,17.32
2019-04-07T13:14:53.720Z,17.60
2019-04-07T13:17:24.949Z,17.20
2019-04-07T13:19:58.666Z,17.45
2019-04-07T13:22:43.610Z,17.23
2019-04-07T13:25:32.677Z,17.90
2019-04-07T13:28:04.282Z,16.20
2019-04-07T13:30:53.029Z,17.00
2019-04-07T13:33:31.734Z,17.05
2019-04-07T13:36:23.561Z,18.50
2019-04-07T13:39:12.099Z,17.90
2019-04-07T13:42:03.328Z,16.20
2019-04-07T13:44:53.735Z,17.85
2019-04-07T13:47:38.682Z,18.87
2019-04-07T13:50:25.111Z,18.42
2019-04-07T13:53:12.182Z,18.10
2019-04-07T13:56:03.467Z,17.50
2019-04-07T13:58:50.859Z,17.87
2019-04-07T14:01:23.251Z,17.35
2019-04-07T14:04:12.043Z,18.00
2019-04-07T14:06:46.736Z,17.48
2019-04-07T14:09:20.013Z,18.27
2019-04-07T14:12:04.891Z,17.90
2019-04-07T14:14:34.820Z,18.95
2019-04-07T14:17:11.936Z,16.32
2019-04-07T14:19:51.078Z,17.20
2019-04-07T14:22:37.315Z,19.17
2019-04-07T14:25:12.884Z,18.77
2019-04-07T14:28:00.163Z,18.48
2019-04-07T14:30:46.292Z,18.00
2019-04-07T14:33:17.826Z,18.67
2019-04-07T14:35:54.299Z,19.52
2019-04-07T14:38:34.518Z,18.95
2019-04-07T14:41:17.227Z,19.42
2019-04-07T14:43:53.013Z,17.48
2019-04-07T14:46:23.815Z,18.37
2019-04-07T14:49:13.501Z,18.65
2019-04-07T14:51:43.247Z,19.17
2019-04-07T14:54:16.427Z,18.67
2019-04-07T14:56:58.815Z,21.75
2019-04-07T14:59:41.668Z,20.50
2019-04-07T15:02:11.641Z,18.98
2019-04-07T15:04:43.615Z,18.90
2019-04-07T15:07:17.238Z,18.65
2019-04-07T15:09:48.380Z,19.52
2019-04-07T15:12:23.715Z,18.37
2019-04-07T15:14:49.242Z,18.98
2019-04-07T15:17:18.035Z,19.55
2019-04-07T15:19:54.334Z,20.10
2019-04-07T15:22:28.896Z,18.27
2019-04-07T15:24:53.798Z,19.35
2019-04-07T15:27:24.896Z,18.50
2019-04-07T15:29:53.195Z,19.50
2019-04-07T15:32:26.622Z,18.37
2019-04-07T15:34:52.586Z,19.52
2019-04-07T15:37:23.572Z,18.87
2019-04-07T15:39:51.742Z,18.77
2019-04-07T15:42:33.122Z,19.50
2019-04-07T15:44:52.999Z,20.45
2019-04-07T15:47:22.258Z,19.45
2019-04-07T15:49:51.360Z,19.30
2019-04-07T15:52:23.144Z,20.57
2019-04-07T15:54:53.703Z,20.52
2019-04-07T15:57:22.940Z,19.57
2019-04-07T15:59:54.047Z,20.10
2019-04-07T16:02:30.005Z,19.55
2019-04-07T16:05:02.618Z,19.55
2019-04-07T16:07:35.215Z,18.65
2019-04-07T16:10:10.431Z,16.07
2019-04-07T16:12:47.350Z,17.15
2019-04-07T16:15:15.796Z,18.42
2019-04-07T16:17:43.839Z,18.90
2019-04-07T16:20:22.877Z,17.52
2019-04-07T16:22:50.476Z,18.50
2019-04-07T16:25:19.629Z,18.48
2019-04-07T16:27:51.023Z,18.37
2019-04-07T16:30:21.567Z,18.12
2019-04-07T16:32:59.703Z,18.12
2019-04-07T16:35:26.504Z,17.40
2019-04-07T16:37:58.325Z,18.00
2019-04-07T16:40:26.952Z,17.00
2019-04-07T16:43:09.916Z,17.25
2019-04-07T16:45:31.634Z,17.95
2019-04-07T16:48:00.326Z,17.65
2019-04-07T16:50:29.502Z,18.25
2019-04-07T16:53:00.415Z,18.17
2019-04-07T16:55:46.537Z,17.50
2019-04-07T16:58:15.945Z,17.73
2019-04-07T17:00:45.406Z,18.05
2019-04-07T17:03:15.249Z,17.35
2019-04-07T17:05:48.118Z,17.62
2019-04-07T17:08:19.577Z,17.90
2019-04-07T17:10:48.581Z,17.42
2019-04-07T17:13:24.813Z,17.48
2019-04-07T17:15:50.736Z,17.90
2019-04-07T17:18:41.257Z,18.15
2019-04-07T17:21:20.307Z,18.45
2019-04-07T17:23:53.304Z,17.65
2019-04-07T17:26:21.680Z,18.05
2019-04-07T17:28:49.976Z,19.30
2019-04-07T17:31:21.108Z,19.20
2019-04-07T17:33:49.411Z,18.85
2019-04-07T17:36:24.003Z,18.48
2019-04-07T17:39:09.669Z,18.55
2019-04-07T17:41:49.090Z,17.45
2019-04-07T17:44:38.997Z,17.45
2019-04-07T17:47:09.841Z,17.30
2019-04-07T17:49:56.628Z,18.05
2019-04-07T17:52:31.613Z,16.87
2019-04-07T17:55:11.162Z,18.32
2019-04-07T17:57:45.032Z,19.55
2019-04-07T18:00:21.773Z,18.65
2019-04-07T18:02:54.932Z,17.98
2019-04-07T18:05:40.730Z,18.73
2019-04-07T18:08:15.731Z,17.95
2019-04-07T18:10:50.772Z,17.25
2019-04-07T18:13:46.015Z,17.60
2019-04-07T18:16:22.847Z,18.42
2019-04-07T18:19:05.257Z,17.97
2019-04-07T18:21:53.944Z,17.05
2019-04-07T18:24:46.679Z,19.30
2019-04-07T18:27:25.937Z,20.50
2019-04-07T18:29:59.640Z,19.25
2019-04-07T18:32:37.498Z,20.12
2019-04-07T18:35:18.074Z,19.07
2019-04-07T18:38:00.774Z,20.23
2019-04-07T18:40:42.899Z,19.98
2019-04-07T18:43:32.178Z,20.37
2019-04-07T18:46:21.482Z,20.52
2019-04-07T18:49:06.088Z,21.82
2019-04-07T18:51:54.594Z,24.33
2019-04-07T18:54:42.381Z,23.05
2019-04-07T18:57:29.441Z,21.35
2019-04-07T19:00:04.302Z,20.23
2019-04-07T19:02:44.299Z,25.27
2019-04-07T19:05:33.404Z,22.20
2019-04-07T19:08:05.064Z,22.57
2019-04-07T19:10:45.463Z,21.77
2019-04-07T19:13:35.766Z,21.07
2019-04-07T19:16:10.735Z,20.50
2019-04-07T19:18:54.774Z,19.77
2019-04-07T19:21:37.256Z,18.33
2019-04-07T19:24:18.429Z,20.10
2019-04-07T19:27:12.649Z,20.97
2019-04-07T19:29:46.287Z,19.60
2019-04-07T19:32:23.566Z,19.90
2019-04-07T19:35:02.629Z,19.30
2019-04-07T19:37:33.242Z,18.57
2019-04-07T19:40:09.474Z,20.17
2019-04-07T19:43:02.624Z,19.13
2019-04-07T19:45:33.120Z,20.17
2019-04-07T19:50:55.028Z,19.20
2019-04-07T19:53:43.257Z,20.07
2019-04-07T19:56:12.350Z,19.50
2019-04-07T19:58:55.593Z,20.20
2019-04-07T20:01:42.702Z,18.93
2019-04-07T20:04:31.108Z,20.30
2019-04-07T20:07:10.463Z,19.20
2019-04-07T20:09:58.888Z,19.83
2019-04-07T20:12:45.435Z,20.60
2019-04-07T20:15:38.077Z,19.33
2019-04-07T20:18:29.261Z,20.37
2019-04-07T20:21:08.306Z,18.97
2019-04-07T20:23:41.545Z,19.07
2019-04-07T20:26:15.832Z,19.17
2019-04-07T20:28:45.145Z,18.23
2019-04-07T20:31:31.746Z,18.87
2019-04-07T20:34:09.729Z,20.20
2019-04-07T20:36:48.041Z,18.50
2019-04-07T20:39:24.869Z,19.83
2019-04-07T20:41:58.838Z,19.40
2019-04-07T20:44:43.052Z,18.77
2019-04-07T20:47:17.602Z,18.60
2019-04-07T20:50:00.120Z,20.07
2019-04-07T20:52:44.949Z,19.03
2019-04-07T20:55:15.579Z,19.07
2019-04-07T20:57:54.947Z,18.80
2019-04-07T21:00:23.762Z,19.40
2019-04-07T21:03:10.771Z,18.83
2019-04-07T21:05:44.161Z,18.57
2019-04-07T21:08:18.572Z,19.57
2019-04-07T21:10:52.658Z,19.23
2019-04-07T21:13:41.785Z,18.53
2019-04-07T21:16:23.671Z,18.90
2019-04-07T21:18:50.168Z,19.70
2019-04-07T21:21:23.469Z,19.70
2019-04-07T21:23:57.349Z,20.97
2019-04-07T21:26:31.327Z,18.63
2019-04-07T21:29:28.095Z,18.47
2019-04-07T21:32:01.531Z,18.43
2019-04-07T21:34:47.763Z,18.97
2019-04-07T21:37:33.755Z,18.83
2019-04-07T21:40:08.425Z,19.03
2019-04-07T21:42:38.610Z,18.87
2019-04-07T21:45:15.335Z,19.30
2019-04-07T21:47:48.570Z,19.43
2019-04-07T21:50:33.866Z,19.50
2019-04-07T21:53:14.260Z,19.03
2019-04-07T21:55:49.718Z,19.47
2019-04-07T21:58:35.668Z,19.73
2019-04-07T22:01:23.021Z,19.07
2019-04-07T22:03:54.500Z,19.87
2019-04-07T22:06:29.786Z,20.00
2019-04-07T22:09:02.820Z,20.60
2019-04-07T22:11:31.459Z,20.23
2019-04-07T22:14:04.155Z,20.90
2019-04-07T22:16:35.422Z,19.83
2019-04-07T22:19:04.337Z,19.37
2019-04-07T22:21:34.368Z,18.87
2019-04-07T22:24:03.103Z,19.60
2019-04-07T22:26:33.481Z,19.90
2019-04-07T22:29:04.563Z,19.13
2019-04-07T22:31:49.245Z,20.50
2019-04-07T22:34:18.620Z,20.77
2019-04-07T22:36:48.079Z,21.70
2019-04-07T22:39:17.044Z,20.70
2019-04-07T22:41:46.245Z,20.27
2019-04-07T22:44:19.984Z,21.40
2019-04-07T22:46:49.469Z,20.97
2019-04-07T22:49:17.707Z,21.17
2019-04-07T22:51:47.546Z,20.63
2019-04-07T22:54:17.052Z,19.90
2019-04-07T22:56:46.641Z,20.80
2019-04-07T22:59:15.470Z,20.00
2019-04-07T23:01:44.442Z,21.13
2019-04-07T23:04:13.975Z,20.07
2019-04-07T23:06:45.798Z,20.87
2019-04-07T23:09:17.655Z,21.60
2019-04-07T23:11:46.320Z,20.97
2019-04-07T23:14:18.691Z,19.90
2019-04-07T23:16:47.458Z,22.00
2019-04-07T23:19:19.291Z,20.80
2019-04-07T23:21:51.252Z,20.97
2019-04-07T23:24:21.536Z,19.90
2019-04-07T23:26:51.798Z,20.37
2019-04-07T23:29:20.438Z,20.53
2019-04-07T23:31:49.407Z,20.57
2019-04-07T23:34:19.044Z,20.27
2019-04-07T23:36:47.976Z,21.57
2019-04-07T23:39:18.103Z,20.40
2019-04-07T23:41:46.918Z,20.43
2019-04-07T23:44:16.061Z,21.40
2019-04-07T23:46:44.846Z,21.50
2019-04-07T23:49:13.883Z,20.47
2019-04-07T23:51:43.412Z,21.10
2019-04-07T23:54:14.349Z,21.10
2019-04-07T23:56:45.881Z,21.13
2019-04-07T23:59:15.143Z,20.13
